Ana Sayfa
METAR-TAF:

METAR-TAF

Havaalanları :

Base Presidente Eduardo Frei Montalva, Şili

Enlem: 62-11-28S, Boylam: 58-59-11W, yükseklik: 45 m

Güncel hava durumu gözlemi

Rapor saat 03:00 UTC de 16 dakika önce yapıldı.
Rüzgar doğudan 3 kt
Sıcaklık -8°C
Nem 92%
Basınç 1004 hPa
Görüş mesafesi 10 km veya daha fazla
3700 ft yükseklikte az bulutlu
4200 ft yükseklikte çok bulutlu
hafif kar sağanakları

METAR: SCRM 240300Z 08003KT 9999 -SHSN FEW037 OVC042 M08/M09 Q1004 NOSIG

Saat: 23:16 (03:16 UTC)


TAF: eksik

4.000'den fazla havaalanı için hava durumu gözlemleri ve tahminleri (METAR ve TAF raporları).

Kullanılabilir istasyonlar harita üzerinde sarı ve kırmızı noktalarla gösterilir.

İstasyonun adını görmek için fareyi noktanın üzerinde gezdirin.

Sonrasında hava gözlem ve tahminlerini görmek için tıklayın.

Haritayı değiştirmek için: yaklaştırmak için siyah artı işaretli yeşil düğmeye ve uzaklaştırmak için de eksi işaretli düğmeye hızla tıklayın; bitişik haritalar için yeşil okları kullanın.


METAR-TAF: